sensor_id;sensor_type;location;lat;lon;timestamp;pressure;altitude;pressure_sealevel;temperature;humidity
50268;BME280;36153;50.960;6.220;2024-03-22T00:00:21;101216.69;;;16.65;53.79
50268;BME280;36153;50.960;6.220;2024-03-22T00:02:22;101211.44;;;16.68;54.05
50268;BME280;36153;50.960;6.220;2024-03-22T00:04:24;101221.09;;;16.59;54.25
50268;BME280;36153;50.960;6.220;2024-03-22T00:06:25;101206.16;;;16.78;53.68
50268;BME280;36153;50.960;6.220;2024-03-22T00:08:25;101211.44;;;16.75;53.78
50268;BME280;36153;50.960;6.220;2024-03-22T00:10:26;101210.53;;;16.80;53.68
50268;BME280;36153;50.960;6.220;2024-03-22T00:12:26;101204.41;;;16.81;53.34
50268;BME280;36153;50.960;6.220;2024-03-22T00:14:26;101199.13;;;16.77;53.49
50268;BME280;36153;50.960;6.220;2024-03-22T00:16:27;101195.59;;;16.84;53.73
50268;BME280;36153;50.960;6.220;2024-03-22T00:18:27;101195.63;;;16.85;53.72
50268;BME280;36153;50.960;6.220;2024-03-22T00:20:27;101193.00;;;16.92;53.43
50268;BME280;36153;50.960;6.220;2024-03-22T00:22:27;101191.25;;;16.78;53.72
50268;BME280;36153;50.960;6.220;2024-03-22T00:24:28;101179.84;;;16.92;53.78
50268;BME280;36153;50.960;6.220;2024-03-22T00:26:28;101182.47;;;16.82;53.47
50268;BME280;36153;50.960;6.220;2024-03-22T00:28:29;101178.97;;;16.89;53.50
50268;BME280;36153;50.960;6.220;2024-03-22T00:30:29;101175.44;;;17.00;53.18
50268;BME280;36153;50.960;6.220;2024-03-22T00:32:30;101174.56;;;17.02;53.46
50268;BME280;36153;50.960;6.220;2024-03-22T00:34:30;101175.41;;;17.09;53.32
50268;BME280;36153;50.960;6.220;2024-03-22T00:36:30;101171.03;;;17.05;53.19
50268;BME280;36153;50.960;6.220;2024-03-22T00:38:31;101164.84;;;17.12;53.03
50268;BME280;36153;50.960;6.220;2024-03-22T00:40:31;101162.19;;;17.17;53.14
50268;BME280;36153;50.960;6.220;2024-03-22T00:42:31;101161.28;;;17.22;53.25
50268;BME280;36153;50.960;6.220;2024-03-22T00:44:32;101150.81;;;17.16;53.18
50268;BME280;36153;50.960;6.220;2024-03-22T00:46:32;101149.97;;;17.10;53.49
50268;BME280;36153;50.960;6.220;2024-03-22T00:48:32;101146.44;;;17.14;53.48
50268;BME280;36153;50.960;6.220;2024-03-22T00:50:32;101142.09;;;17.05;53.34
50268;BME280;36153;50.960;6.220;2024-03-22T00:52:33;101141.22;;;17.01;53.59
50268;BME280;36153;50.960;6.220;2024-03-22T00:54:33;101139.44;;;17.08;53.59
50268;BME280;36153;50.960;6.220;2024-03-22T00:56:33;101129.75;;;17.19;53.17
50268;BME280;36153;50.960;6.220;2024-03-22T00:58:34;101128.00;;;17.15;53.71
50268;BME280;36153;50.960;6.220;2024-03-22T01:00:34;101125.44;;;17.09;53.89
50268;BME280;36153;50.960;6.220;2024-03-22T01:02:37;101121.81;;;17.22;53.09
50268;BME280;36153;50.960;6.220;2024-03-22T01:04:37;101127.97;;;17.23;53.11
50268;BME280;36153;50.960;6.220;2024-03-22T01:06:38;101120.91;;;17.27;53.06
50268;BME280;36153;50.960;6.220;2024-03-22T01:08:40;101120.94;;;17.23;53.53
50268;BME280;36153;50.960;6.220;2024-03-22T01:10:40;101131.47;;;17.17;53.51
50268;BME280;36153;50.960;6.220;2024-03-22T01:12:42;101131.31;;;17.45;52.98
50268;BME280;36153;50.960;6.220;2024-03-22T01:14:42;101134.84;;;17.41;52.85
50268;BME280;36153;50.960;6.220;2024-03-22T01:16:43;101138.34;;;17.43;52.79
50268;BME280;36153;50.960;6.220;2024-03-22T01:18:43;101136.63;;;17.39;53.14
50268;BME280;36153;50.960;6.220;2024-03-22T01:20:44;101129.66;;;17.33;52.96
50268;BME280;36153;50.960;6.220;2024-03-22T01:22:45;101127.88;;;17.38;52.88
50268;BME280;36153;50.960;6.220;2024-03-22T01:24:46;101122.59;;;17.40;53.02
50268;BME280;36153;50.960;6.220;2024-03-22T01:26:47;101123.41;;;17.48;52.77
50268;BME280;36153;50.960;6.220;2024-03-22T01:28:48;101122.53;;;17.46;52.56
50268;BME280;36153;50.960;6.220;2024-03-22T01:30:49;101117.28;;;17.45;52.73
50268;BME280;36153;50.960;6.220;2024-03-22T01:32:50;101121.69;;;17.39;52.85
50268;BME280;36153;50.960;6.220;2024-03-22T01:34:50;101119.13;;;17.32;52.96
50268;BME280;36153;50.960;6.220;2024-03-22T01:36:51;101110.34;;;17.31;53.06
50268;BME280;36153;50.960;6.220;2024-03-22T01:38:52;101110.34;;;17.36;53.16
50268;BME280;36153;50.960;6.220;2024-03-22T01:40:53;101105.03;;;17.42;52.93
50268;BME280;36153;50.960;6.220;2024-03-22T01:42:55;101098.06;;;17.35;53.07
50268;BME280;36153;50.960;6.220;2024-03-22T01:44:56;101088.47;;;17.26;53.41
50268;BME280;36153;50.960;6.220;2024-03-22T01:46:56;101093.66;;;17.35;53.28
50268;BME280;36153;50.960;6.220;2024-03-22T01:48:57;101084.06;;;17.30;53.34
50268;BME280;36153;50.960;6.220;2024-03-22T01:50:57;101086.69;;;17.34;53.11
50268;BME280;36153;50.960;6.220;2024-03-22T01:52:59;101082.28;;;17.35;53.14
50268;BME280;36153;50.960;6.220;2024-03-22T01:55:00;101082.22;;;17.41;52.95
50268;BME280;36153;50.960;6.220;2024-03-22T01:57:00;101076.97;;;17.38;53.04
50268;BME280;36153;50.960;6.220;2024-03-22T01:59:01;101084.06;;;17.30;53.21
50268;BME280;36153;50.960;6.220;2024-03-22T02:01:06;101081.41;;;17.36;53.13
50268;BME280;36153;50.960;6.220;2024-03-22T02:03:06;101077.03;;;17.32;53.73
50268;BME280;36153;50.960;6.220;2024-03-22T02:05:17;101081.41;;;17.36;53.67
50268;BME280;36153;50.960;6.220;2024-03-22T02:07:19;101078.72;;;17.39;53.11
50268;BME280;36153;50.960;6.220;2024-03-22T02:09:20;101069.94;;;17.43;53.11
50268;BME280;36153;50.960;6.220;2024-03-22T02:11:21;101068.19;;;17.40;52.88
50268;BME280;36153;50.960;6.220;2024-03-22T02:13:21;101062.91;;;17.42;52.86
50268;BME280;36153;50.960;6.220;2024-03-22T02:15:26;101051.56;;;17.35;53.20
50268;BME280;36153;50.960;6.220;2024-03-22T02:17:27;101045.50;;;17.26;53.33
50268;BME280;36153;50.960;6.220;2024-03-22T02:19:27;101040.22;;;17.29;53.26
50268;BME280;36153;50.960;6.220;2024-03-22T02:21:28;101032.25;;;17.36;53.36
50268;BME280;36153;50.960;6.220;2024-03-22T02:23:38;101028.66;;;17.45;53.07
50268;BME280;36153;50.960;6.220;2024-03-22T02:25:40;101028.69;;;17.47;52.99
50268;BME280;36153;50.960;6.220;2024-03-22T02:27:41;101033.03;;;17.52;52.99
50268;BME280;36153;50.960;6.220;2024-03-22T02:29:41;101032.09;;;17.53;52.69
50268;BME280;36153;50.960;6.220;2024-03-22T02:31:43;101040.00;;;17.53;52.78
50268;BME280;36153;50.960;6.220;2024-03-22T02:33:44;101041.03;;;17.37;53.24
50268;BME280;36153;50.960;6.220;2024-03-22T02:35:48;101041.81;;;17.45;53.43
50268;BME280;36153;50.960;6.220;2024-03-22T02:37:49;101037.41;;;17.49;53.28
50268;BME280;36153;50.960;6.220;2024-03-22T02:39:49;101027.84;;;17.40;53.62
50268;BME280;36153;50.960;6.220;2024-03-22T02:41:51;101030.50;;;17.38;53.34
50268;BME280;36153;50.960;6.220;2024-03-22T02:43:53;101023.53;;;17.34;53.61
50268;BME280;36153;50.960;6.220;2024-03-22T02:45:53;101021.81;;;17.27;53.86
50268;BME280;36153;50.960;6.220;2024-03-22T02:47:54;101025.22;;;17.42;53.49
50268;BME280;36153;50.960;6.220;2024-03-22T02:49:54;101021.69;;;17.39;53.79
50268;BME280;36153;50.960;6.220;2024-03-22T02:51:54;101021.00;;;17.19;54.44
50268;BME280;36153;50.960;6.220;2024-03-22T02:53:55;101020.97;;;17.22;54.54
50268;BME280;36153;50.960;6.220;2024-03-22T02:55:55;101017.56;;;17.09;54.70
50268;BME280;36153;50.960;6.220;2024-03-22T02:57:57;101017.44;;;17.28;54.22
50268;BME280;36153;50.960;6.220;2024-03-22T03:00:01;101013.09;;;17.20;54.55
50268;BME280;36153;50.960;6.220;2024-03-22T03:02:02;101010.38;;;17.33;54.15
50268;BME280;36153;50.960;6.220;2024-03-22T03:04:03;101005.22;;;17.20;54.58
50268;BME280;36153;50.960;6.220;2024-03-22T03:06:04;101008.69;;;17.24;54.47
50268;BME280;36153;50.960;6.220;2024-03-22T03:08:05;101014.69;;;17.42;53.86
50268;BME280;36153;50.960;6.220;2024-03-22T03:10:06;101005.09;;;17.36;53.92
50268;BME280;36153;50.960;6.220;2024-03-22T03:12:06;101004.16;;;17.42;53.63
50268;BME280;36153;50.960;6.220;2024-03-22T03:14:08;101001.56;;;17.37;53.96
50268;BME280;36153;50.960;6.220;2024-03-22T03:16:09;101003.41;;;17.29;53.96
50268;BME280;36153;50.960;6.220;2024-03-22T03:18:09;100997.31;;;17.22;54.11
50268;BME280;36153;50.960;6.220;2024-03-22T03:20:10;100998.06;;;17.35;53.89
50268;BME280;36153;50.960;6.220;2024-03-22T03:22:13;100989.22;;;17.44;53.59
50268;BME280;36153;50.960;6.220;2024-03-22T03:24:14;100983.03;;;17.51;53.30
50268;BME280;36153;50.960;6.220;2024-03-22T03:26:14;100982.91;;;17.60;53.17
50268;BME280;36153;50.960;6.220;2024-03-22T03:28:15;100977.72;;;17.54;53.36
50268;BME280;36153;50.960;6.220;2024-03-22T03:30:15;100977.75;;;17.52;53.00
50268;BME280;36153;50.960;6.220;2024-03-22T03:32:16;100972.50;;;17.51;53.01
50268;BME280;36153;50.960;6.220;2024-03-22T03:34:16;100974.25;;;17.49;52.97
50268;BME280;36153;50.960;6.220;2024-03-22T03:36:16;100973.50;;;17.36;53.49
50268;BME280;36153;50.960;6.220;2024-03-22T03:38:18;100960.19;;;17.53;52.91
50268;BME280;36153;50.960;6.220;2024-03-22T03:40:18;100969.97;;;17.40;53.10
50268;BME280;36153;50.960;6.220;2024-03-22T03:42:19;100966.53;;;17.32;53.29
50268;BME280;36153;50.960;6.220;2024-03-22T03:44:19;100957.84;;;17.20;53.64
50268;BME280;36153;50.960;6.220;2024-03-22T03:46:20;100953.28;;;17.38;52.85
50268;BME280;36153;50.960;6.220;2024-03-22T03:48:21;100968.31;;;17.27;53.24
50268;BME280;36153;50.960;6.220;2024-03-22T03:50:21;100962.25;;;17.17;53.38
50268;BME280;36153;50.960;6.220;2024-03-22T03:52:22;100960.47;;;17.22;53.41
50268;BME280;36153;50.960;6.220;2024-03-22T03:54:24;100955.09;;;17.31;52.96
50268;BME280;36153;50.960;6.220;2024-03-22T03:56:25;100960.50;;;17.16;53.16
50268;BME280;36153;50.960;6.220;2024-03-22T03:58:25;100959.72;;;17.06;53.53
50268;BME280;36153;50.960;6.220;2024-03-22T04:00:26;100961.38;;;17.19;53.02
50268;BME280;36153;50.960;6.220;2024-03-22T04:02:27;100955.25;;;17.14;53.21
50268;BME280;36153;50.960;6.220;2024-03-22T04:04:28;100956.09;;;17.21;53.08
50268;BME280;36153;50.960;6.220;2024-03-22T04:06:29;100949.06;;;17.21;52.86
50268;BME280;36153;50.960;6.220;2024-03-22T04:08:31;100948.28;;;17.09;53.07
50268;BME280;36153;50.960;6.220;2024-03-22T04:10:32;100943.94;;;17.09;53.18
50268;BME280;36153;50.960;6.220;2024-03-22T04:12:32;100940.28;;;17.22;52.84
50268;BME280;36153;50.960;6.220;2024-03-22T04:14:34;100933.22;;;17.28;52.53
50268;BME280;36153;50.960;6.220;2024-03-22T04:16:34;100927.13;;;17.24;52.66
50268;BME280;36153;50.960;6.220;2024-03-22T04:18:34;100924.69;;;17.04;53.11
50268;BME280;36153;50.960;6.220;2024-03-22T04:20:35;100918.31;;;17.28;52.46
50268;BME280;36153;50.960;6.220;2024-03-22T04:22:36;100920.91;;;17.30;52.39
50268;BME280;36153;50.960;6.220;2024-03-22T04:24:36;100924.38;;;17.35;52.23
50268;BME280;36153;50.960;6.220;2024-03-22T04:26:36;100924.31;;;17.44;51.82
50268;BME280;36153;50.960;6.220;2024-03-22T04:28:37;100911.22;;;17.36;51.96
50268;BME280;36153;50.960;6.220;2024-03-22T04:30:38;100905.00;;;17.42;52.11
50268;BME280;36153;50.960;6.220;2024-03-22T04:32:38;100906.75;;;17.43;51.96
50268;BME280;36153;50.960;6.220;2024-03-22T04:34:42;100897.19;;;17.36;52.24
50268;BME280;36153;50.960;6.220;2024-03-22T04:36:42;100895.38;;;17.39;52.23
50268;BME280;36153;50.960;6.220;2024-03-22T04:38:45;100898.84;;;17.45;52.02
50268;BME280;36153;50.960;6.220;2024-03-22T04:40:45;100891.84;;;17.42;52.01
50268;BME280;36153;50.960;6.220;2024-03-22T04:42:45;100889.31;;;17.36;52.36
50268;BME280;36153;50.960;6.220;2024-03-22T04:44:47;100889.47;;;17.19;52.89
50268;BME280;36153;50.960;6.220;2024-03-22T04:46:48;100883.31;;;17.18;53.04
50268;BME280;36153;50.960;6.220;2024-03-22T04:48:53;100886.78;;;17.23;52.80
50268;BME280;36153;50.960;6.220;2024-03-22T04:50:53;100884.91;;;17.35;52.65
50268;BME280;36153;50.960;6.220;2024-03-22T04:52:54;100875.38;;;17.26;52.61
50268;BME280;36153;50.960;6.220;2024-03-22T04:54:54;100873.69;;;17.17;52.92
50268;BME280;36153;50.960;6.220;2024-03-22T04:56:55;100878.66;;;17.45;52.07
50268;BME280;36153;50.960;6.220;2024-03-22T04:58:55;100878.91;;;17.23;53.06
50268;BME280;36153;50.960;6.220;2024-03-22T05:00:57;100871.81;;;17.32;52.78
50268;BME280;36153;50.960;6.220;2024-03-22T05:02:57;100873.53;;;17.31;52.83
50268;BME280;36153;50.960;6.220;2024-03-22T05:04:58;100876.16;;;17.31;52.85
50268;BME280;36153;50.960;6.220;2024-03-22T05:06:58;100869.06;;;17.41;52.51
50268;BME280;36153;50.960;6.220;2024-03-22T05:08:58;100871.66;;;17.46;52.41
50268;BME280;36153;50.960;6.220;2024-03-22T05:10:59;100870.09;;;17.28;52.94
50268;BME280;36153;50.960;6.220;2024-03-22T05:12:59;100878.72;;;17.39;52.85
50268;BME280;36153;50.960;6.220;2024-03-22T05:15:03;100871.84;;;17.29;52.99
50268;BME280;36153;50.960;6.220;2024-03-22T05:17:03;100876.91;;;17.46;52.79
50268;BME280;36153;50.960;6.220;2024-03-22T05:19:06;100876.22;;;17.28;52.99
50268;BME280;36153;50.960;6.220;2024-03-22T05:21:06;100873.50;;;17.36;53.33
50268;BME280;36153;50.960;6.220;2024-03-22T05:23:07;100865.56;;;17.39;52.70
50268;BME280;36153;50.960;6.220;2024-03-22T05:25:07;100870.16;;;17.23;53.16
50268;BME280;36153;50.960;6.220;2024-03-22T05:27:10;100859.34;;;17.46;52.60
50268;BME280;36153;50.960;6.220;2024-03-22T05:29:10;100861.13;;;17.46;52.81
50268;BME280;36153;50.960;6.220;2024-03-22T05:31:11;100865.72;;;17.25;52.97
50268;BME280;36153;50.960;6.220;2024-03-22T05:33:11;100856.09;;;17.24;53.63
50268;BME280;36153;50.960;6.220;2024-03-22T05:35:12;100849.78;;;17.39;52.75
50268;BME280;36153;50.960;6.220;2024-03-22T05:37:12;100855.00;;;17.44;52.81
50268;BME280;36153;50.960;6.220;2024-03-22T05:39:12;100855.78;;;17.52;52.55
50268;BME280;36153;50.960;6.220;2024-03-22T05:41:14;100857.50;;;17.54;52.38
50268;BME280;36153;50.960;6.220;2024-03-22T05:43:15;100853.94;;;17.60;52.06
50268;BME280;36153;50.960;6.220;2024-03-22T05:45:15;100862.88;;;17.45;52.70
50268;BME280;36153;50.960;6.220;2024-03-22T05:47:15;100852.47;;;17.36;53.01
50268;BME280;36153;50.960;6.220;2024-03-22T05:49:16;100849.72;;;17.44;53.23
50268;BME280;36153;50.960;6.220;2024-03-22T05:51:16;100852.41;;;17.39;53.34
50268;BME280;36153;50.960;6.220;2024-03-22T05:53:17;100855.78;;;17.50;52.97
50268;BME280;36153;50.960;6.220;2024-03-22T05:55:18;100852.47;;;17.36;53.34
50268;BME280;36153;50.960;6.220;2024-03-22T05:57:18;100848.00;;;17.43;53.10
50268;BME280;36153;50.960;6.220;2024-03-22T05:59:19;100847.19;;;17.36;53.51
50268;BME280;36153;50.960;6.220;2024-03-22T06:01:19;100841.06;;;17.34;53.67
50268;BME280;36153;50.960;6.220;2024-03-22T06:03:20;100840.28;;;17.24;53.79
50268;BME280;36153;50.960;6.220;2024-03-22T06:05:20;100846.31;;;17.35;53.72
50268;BME280;36153;50.960;6.220;2024-03-22T06:07:20;100843.81;;;17.25;54.14
50268;BME280;36153;50.960;6.220;2024-03-22T06:09:21;100849.84;;;17.34;54.00
50268;BME280;36153;50.960;6.220;2024-03-22T06:11:34;100843.72;;;17.32;54.11
50268;BME280;36153;50.960;6.220;2024-03-22T06:13:34;100839.31;;;17.34;54.09
50268;BME280;36153;50.960;6.220;2024-03-22T06:15:35;100839.06;;;17.56;53.59
50268;BME280;36153;50.960;6.220;2024-03-22T06:17:35;100842.56;;;17.58;53.25
50268;BME280;36153;50.960;6.220;2024-03-22T06:19:36;100833.81;;;17.54;53.34
50268;BME280;36153;50.960;6.220;2024-03-22T06:21:37;100838.22;;;17.54;53.77
50268;BME280;36153;50.960;6.220;2024-03-22T06:23:37;100832.59;;;17.83;52.96
50268;BME280;36153;50.960;6.220;2024-03-22T06:25:37;100836.31;;;17.67;53.32
50268;BME280;36153;50.960;6.220;2024-03-22T06:27:37;100834.56;;;17.66;53.50
50268;BME280;36153;50.960;6.220;2024-03-22T06:29:38;100842.44;;;17.67;53.20
50268;BME280;36153;50.960;6.220;2024-03-22T06:31:38;100843.16;;;17.80;53.08
50268;BME280;36153;50.960;6.220;2024-03-22T06:33:39;100834.41;;;17.78;53.13
50268;BME280;36153;50.960;6.220;2024-03-22T06:35:41;100840.50;;;17.82;53.09
50268;BME280;36153;50.960;6.220;2024-03-22T06:37:41;100832.69;;;17.74;53.44
50268;BME280;36153;50.960;6.220;2024-03-22T06:39:43;100836.22;;;17.71;53.55
50268;BME280;36153;50.960;6.220;2024-03-22T06:41:44;100830.75;;;17.91;53.01
50268;BME280;36153;50.960;6.220;2024-03-22T06:43:44;100830.75;;;17.91;52.89
50268;BME280;36153;50.960;6.220;2024-03-22T06:45:45;100831.69;;;17.86;53.46
50268;BME280;36153;50.960;6.220;2024-03-22T06:47:45;100832.31;;;18.05;52.77
50268;BME280;36153;50.960;6.220;2024-03-22T06:49:46;100821.59;;;18.17;52.37
50268;BME280;36153;50.960;6.220;2024-03-22T06:51:46;100830.59;;;18.01;53.23
50268;BME280;36153;50.960;6.220;2024-03-22T06:53:47;100825.34;;;18.01;53.28
50268;BME280;36153;50.960;6.220;2024-03-22T06:55:48;100818.75;;;18.31;52.17
50268;BME280;36153;50.960;6.220;2024-03-22T06:57:50;100819.81;;;18.19;52.42
50268;BME280;36153;50.960;6.220;2024-03-22T06:59:55;100816.50;;;18.05;52.24
50268;BME280;36153;50.960;6.220;2024-03-22T07:01:55;100819.81;;;18.19;52.65
50268;BME280;36153;50.960;6.220;2024-03-22T07:03:55;100816.28;;;18.22;52.19
50268;BME280;36153;50.960;6.220;2024-03-22T07:05:56;100816.38;;;18.14;52.46
50268;BME280;36153;50.960;6.220;2024-03-22T07:07:57;100809.13;;;18.29;52.20
50268;BME280;36153;50.960;6.220;2024-03-22T07:09:58;100805.00;;;18.12;52.19
50268;BME280;36153;50.960;6.220;2024-03-22T07:12:00;100811.00;;;18.20;51.85
50268;BME280;36153;50.960;6.220;2024-03-22T07:14:00;100814.59;;;18.16;52.12
50268;BME280;36153;50.960;6.220;2024-03-22T07:16:03;100815.59;;;18.07;52.24
50268;BME280;36153;50.960;6.220;2024-03-22T07:18:04;100823.28;;;18.21;51.78
50268;BME280;36153;50.960;6.220;2024-03-22T07:20:05;100807.63;;;18.12;51.88
50268;BME280;36153;50.960;6.220;2024-03-22T07:22:06;100809.84;;;18.38;50.94
50268;BME280;36153;50.960;6.220;2024-03-22T07:24:07;100813.16;;;17.90;51.92
50268;BME280;36153;50.960;6.220;2024-03-22T07:26:07;100809.28;;;18.19;51.77
50268;BME280;36153;50.960;6.220;2024-03-22T07:28:08;100809.50;;;18.05;51.95
50268;BME280;36153;50.960;6.220;2024-03-22T07:30:10;100809.97;;;18.31;51.24
50268;BME280;36153;50.960;6.220;2024-03-22T07:32:10;100815.84;;;18.50;50.66
50268;BME280;36153;50.960;6.220;2024-03-22T07:34:11;100804.44;;;18.48;51.11
50268;BME280;36153;50.960;6.220;2024-03-22T07:36:11;100808.91;;;18.44;50.59
50268;BME280;36153;50.960;6.220;2024-03-22T07:38:11;100810.69;;;18.42;50.63
50268;BME280;36153;50.960;6.220;2024-03-22T07:40:13;100810.78;;;18.36;50.83
50268;BME280;36153;50.960;6.220;2024-03-22T07:42:13;100814.38;;;18.32;51.26
50268;BME280;36153;50.960;6.220;2024-03-22T07:44:13;100815.91;;;18.45;51.00
50268;BME280;36153;50.960;6.220;2024-03-22T07:46:14;100808.69;;;18.56;50.74
50268;BME280;36153;50.960;6.220;2024-03-22T07:48:14;100806.69;;;18.71;50.69
50268;BME280;36153;50.960;6.220;2024-03-22T07:50:17;100800.53;;;18.70;50.65
50268;BME280;36153;50.960;6.220;2024-03-22T07:52:17;100801.50;;;18.65;50.21
50268;BME280;36153;50.960;6.220;2024-03-22T07:54:17;100802.34;;;18.68;50.42
50268;BME280;36153;50.960;6.220;2024-03-22T07:56:18;100797.78;;;18.78;50.25
50268;BME280;36153;50.960;6.220;2024-03-22T07:58:19;100794.94;;;18.90;50.09
50268;BME280;36153;50.960;6.220;2024-03-22T08:00:20;100793.69;;;18.60;50.56
50268;BME280;36153;50.960;6.220;2024-03-22T08:02:20;100800.47;;;18.75;50.12
50268;BME280;36153;50.960;6.220;2024-03-22T08:04:21;100800.31;;;18.83;49.76
50268;BME280;36153;50.960;6.220;2024-03-22T08:06:22;100795.31;;;18.67;50.46
50268;BME280;36153;50.960;6.220;2024-03-22T08:08:22;100796.56;;;18.98;49.50
50268;BME280;36153;50.960;6.220;2024-03-22T08:10:23;100797.94;;;18.67;50.05
50268;BME280;36153;50.960;6.220;2024-03-22T08:12:28;100794.53;;;18.60;50.44
50268;BME280;36153;50.960;6.220;2024-03-22T08:14:29;100796.63;;;18.95;49.93
50268;BME280;36153;50.960;6.220;2024-03-22T08:16:30;100796.09;;;18.74;49.81
50268;BME280;36153;50.960;6.220;2024-03-22T08:18:30;100793.59;;;18.65;50.26
50268;BME280;36153;50.960;6.220;2024-03-22T08:20:30;100788.19;;;18.74;50.06
50268;BME280;36153;50.960;6.220;2024-03-22T08:22:33;100792.44;;;18.81;49.61
50268;BME280;36153;50.960;6.220;2024-03-22T08:24:34;100788.97;;;18.79;49.59
50268;BME280;36153;50.960;6.220;2024-03-22T08:26:34;100791.38;;;18.93;49.54
50268;BME280;36153;50.960;6.220;2024-03-22T08:28:34;100791.78;;;19.18;49.20
50268;BME280;36153;50.960;6.220;2024-03-22T08:30:39;100783.28;;;19.48;48.17
50268;BME280;36153;50.960;6.220;2024-03-22T08:32:39;100780.34;;;19.18;48.52
50268;BME280;36153;50.960;6.220;2024-03-22T08:34:41;100784.06;;;19.07;49.35
50268;BME280;36153;50.960;6.220;2024-03-22T08:36:42;100772.16;;;19.32;48.74
50268;BME280;36153;50.960;6.220;2024-03-22T08:38:43;100784.59;;;18.78;49.38
50268;BME280;36153;50.960;6.220;2024-03-22T08:40:44;100788.75;;;18.93;49.21
50268;BME280;36153;50.960;6.220;2024-03-22T08:42:44;100789.19;;;19.17;48.75
50268;BME280;36153;50.960;6.220;2024-03-22T08:44:45;100778.53;;;19.64;48.02
50268;BME280;36153;50.960;6.220;2024-03-22T08:46:45;100782.03;;;19.22;47.95
50268;BME280;36153;50.960;6.220;2024-03-22T08:48:45;100784.69;;;19.64;48.02
50268;BME280;36153;50.960;6.220;2024-03-22T08:50:46;100788.38;;;19.98;46.71
50268;BME280;36153;50.960;6.220;2024-03-22T08:52:46;100778.03;;;19.88;47.24
50268;BME280;36153;50.960;6.220;2024-03-22T08:54:46;100789.03;;;19.67;47.21
50268;BME280;36153;50.960;6.220;2024-03-22T08:56:47;100775.81;;;20.07;46.87
50268;BME280;36153;50.960;6.220;2024-03-22T08:58:47;100781.63;;;19.84;47.06
50268;BME280;36153;50.960;6.220;2024-03-22T09:00:47;100778.94;;;19.45;47.33
50268;BME280;36153;50.960;6.220;2024-03-22T09:02:48;100784.88;;;19.55;47.89
50268;BME280;36153;50.960;6.220;2024-03-22T09:04:49;100775.56;;;19.37;47.56
50268;BME280;36153;50.960;6.220;2024-03-22T09:06:49;100776.47;;;19.36;47.75
50268;BME280;36153;50.960;6.220;2024-03-22T09:08:50;100780.28;;;19.65;47.57
50268;BME280;36153;50.960;6.220;2024-03-22T09:10:50;100779.59;;;19.95;47.05
50268;BME280;36153;50.960;6.220;2024-03-22T09:12:51;100776.91;;;20.71;45.85
50268;BME280;36153;50.960;6.220;2024-03-22T09:14:51;100773.38;;;20.36;45.46
50268;BME280;36153;50.960;6.220;2024-03-22T09:16:51;100773.41;;;20.34;45.90
50268;BME280;36153;50.960;6.220;2024-03-22T09:18:53;100767.66;;;20.53;46.11
50268;BME280;36153;50.960;6.220;2024-03-22T09:20:54;100768.97;;;20.35;46.43
50268;BME280;36153;50.960;6.220;2024-03-22T09:22:54;100773.28;;;20.39;46.01
50268;BME280;36153;50.960;6.220;2024-03-22T09:24:55;100778.19;;;20.20;46.64
50268;BME280;36153;50.960;6.220;2024-03-22T09:26:55;100772.63;;;20.31;46.54
50268;BME280;36153;50.960;6.220;2024-03-22T09:28:56;100768.22;;;19.93;46.30
50268;BME280;36153;50.960;6.220;2024-03-22T09:30:57;100770.16;;;19.85;46.85
50268;BME280;36153;50.960;6.220;2024-03-22T09:32:58;100767.38;;;19.91;46.92
50268;BME280;36153;50.960;6.220;2024-03-22T09:35:00;100764.34;;;20.08;46.75
50268;BME280;36153;50.960;6.220;2024-03-22T09:37:03;100760.13;;;20.00;47.19
50268;BME280;36153;50.960;6.220;2024-03-22T09:39:04;100767.72;;;19.74;47.71
50268;BME280;36153;50.960;6.220;2024-03-22T09:41:04;100765.56;;;19.53;47.82
50268;BME280;36153;50.960;6.220;2024-03-22T09:43:06;100755.53;;;19.69;47.94
50268;BME280;36153;50.960;6.220;2024-03-22T09:45:08;100752.50;;;19.47;48.63
50268;BME280;36153;50.960;6.220;2024-03-22T09:47:12;100752.53;;;19.86;47.42
50268;BME280;36153;50.960;6.220;2024-03-22T09:49:14;100754.84;;;20.00;47.29
50268;BME280;36153;50.960;6.220;2024-03-22T09:51:16;100753.50;;;19.82;47.81
50268;BME280;36153;50.960;6.220;2024-03-22T09:53:19;100752.31;;;19.56;48.31
50268;BME280;36153;50.960;6.220;2024-03-22T09:55:24;100748.09;;;19.47;48.50
50268;BME280;36153;50.960;6.220;2024-03-22T09:57:25;100747.88;;;19.56;48.42
50268;BME280;36153;50.960;6.220;2024-03-22T09:59:26;100741.56;;;19.64;48.56
50268;BME280;36153;50.960;6.220;2024-03-22T10:01:27;100750.88;;;19.82;48.28
50268;BME280;36153;50.960;6.220;2024-03-22T10:03:28;100747.47;;;20.14;47.91
50268;BME280;36153;50.960;6.220;2024-03-22T10:05:28;100739.44;;;20.19;47.48
50268;BME280;36153;50.960;6.220;2024-03-22T10:07:28;100746.00;;;20.38;47.18
50268;BME280;36153;50.960;6.220;2024-03-22T10:09:29;100743.16;;;20.46;46.99
50268;BME280;36153;50.960;6.220;2024-03-22T10:11:30;100743.09;;;20.13;47.91
50268;BME280;36153;50.960;6.220;2024-03-22T10:13:30;100744.69;;;20.20;47.60
50268;BME280;36153;50.960;6.220;2024-03-22T10:15:31;100740.91;;;19.94;47.87
50268;BME280;36153;50.960;6.220;2024-03-22T10:17:32;100732.22;;;20.25;47.33
50268;BME280;36153;50.960;6.220;2024-03-22T10:19:38;100729.66;;;20.22;47.33
50268;BME280;36153;50.960;6.220;2024-03-22T10:21:42;100729.03;;;20.12;48.13
50268;BME280;36153;50.960;6.220;2024-03-22T10:23:42;100726.03;;;20.26;47.27
50268;BME280;36153;50.960;6.220;2024-03-22T10:25:44;100725.09;;;20.27;46.91
50268;BME280;36153;50.960;6.220;2024-03-22T10:27:44;100722.63;;;20.21;47.23
50268;BME280;36153;50.960;6.220;2024-03-22T10:29:47;100724.22;;;19.92;47.71
50268;BME280;36153;50.960;6.220;2024-03-22T10:31:50;100728.34;;;20.04;47.83